createdAt,value
2019-03-17T00:00:03.044Z,69.69
2019-03-17T00:01:02.991Z,69.69
2019-03-17T00:02:02.979Z,69.79
2019-03-17T00:03:02.990Z,69.28
2019-03-17T00:04:02.980Z,69.28
2019-03-17T00:05:02.974Z,69.59
2019-03-17T00:06:02.976Z,69.59
2019-03-17T00:07:02.930Z,70.20
2019-03-17T00:08:02.973Z,70.20
2019-03-17T00:09:02.912Z,69.96
2019-03-17T00:10:03.028Z,69.48
2019-03-17T00:11:02.922Z,69.76
2019-03-17T00:12:02.886Z,69.48
2019-03-17T00:13:02.875Z,69.89
2019-03-17T00:14:02.854Z,69.45
2019-03-17T00:15:05.542Z,69.15
2019-03-17T00:16:02.873Z,69.69
2019-03-17T00:17:02.812Z,69.04
2019-03-17T00:18:02.802Z,68.94
2019-03-17T00:19:02.791Z,69.28
2019-03-17T00:20:02.795Z,69.59
2019-03-17T00:21:02.805Z,70.06
2019-03-17T00:22:02.778Z,69.89
2019-03-17T00:23:02.748Z,69.04
2019-03-17T00:24:02.746Z,69.45
2019-03-17T00:25:09.013Z,69.56
2019-03-17T00:26:03.750Z,69.45
2019-03-17T00:27:02.711Z,69.65
2019-03-17T00:28:02.703Z,69.86
2019-03-17T00:29:02.683Z,69.28
2019-03-17T00:30:02.669Z,69.35
2019-03-17T00:31:02.661Z,69.28
2019-03-17T00:32:02.671Z,69.76
2019-03-17T00:33:02.648Z,68.74
2019-03-17T00:34:02.627Z,69.24
2019-03-17T00:35:02.613Z,69.35
2019-03-17T00:36:02.636Z,69.35
2019-03-17T00:37:02.596Z,69.15
2019-03-17T00:38:02.582Z,69.35
2019-03-17T00:39:02.581Z,69.24
2019-03-17T00:40:02.564Z,68.84
2019-03-17T00:41:02.564Z,69.24
2019-03-17T00:42:02.564Z,68.94
2019-03-17T00:43:02.531Z,69.15
2019-03-17T00:44:02.527Z,69.04
2019-03-17T00:45:02.523Z,68.33
2019-03-17T00:46:02.505Z,68.63
2019-03-17T00:47:02.512Z,68.53
2019-03-17T00:48:02.470Z,69.04
2019-03-17T00:49:02.477Z,69.15
2019-03-17T00:50:02.457Z,69.35
2019-03-17T00:51:02.439Z,68.94
2019-03-17T00:52:02.489Z,68.43
2019-03-17T00:53:02.427Z,68.74
2019-03-17T00:54:02.407Z,68.53
2019-03-17T00:55:02.396Z,68.43
2019-03-17T00:56:02.385Z,68.53
2019-03-17T00:57:02.395Z,68.43
2019-03-17T00:58:02.362Z,68.63
2019-03-17T00:59:02.347Z,68.12
2019-03-17T01:00:02.345Z,68.53
2019-03-17T01:01:02.327Z,68.43
2019-03-17T01:02:02.355Z,68.23
2019-03-17T01:03:23.355Z,68.23
2019-03-17T01:04:02.296Z,68.02
2019-03-17T01:05:02.291Z,67.82
2019-03-17T01:06:02.282Z,68.02
2019-03-17T01:07:02.273Z,68.23
2019-03-17T01:08:02.278Z,67.71
2019-03-17T01:09:02.240Z,67.71
2019-03-17T01:10:02.247Z,67.61
2019-03-17T01:11:02.230Z,67.41
2019-03-17T01:12:02.248Z,67.27
2019-03-17T01:13:02.202Z,67.30
2019-03-17T01:14:02.190Z,67.41
2019-03-17T01:15:02.178Z,67.21
2019-03-17T01:16:02.161Z,67.30
2019-03-17T01:17:02.157Z,67.51
2019-03-17T01:18:02.167Z,67.41
2019-03-17T01:19:02.132Z,67.51
2019-03-17T01:20:02.127Z,67.51
2019-03-17T01:21:02.106Z,67.30
2019-03-17T01:22:02.096Z,67.41
2019-03-17T01:23:02.127Z,67.51
2019-03-17T01:24:02.073Z,67.65
2019-03-17T01:25:02.067Z,67.71
2019-03-17T01:26:02.060Z,67.71
2019-03-17T01:27:02.039Z,67.92
2019-03-17T01:28:02.042Z,67.71
2019-03-17T01:29:02.049Z,67.65
2019-03-17T01:30:02.009Z,68.12
2019-03-17T01:31:02.000Z,67.92
2019-03-17T01:32:01.985Z,68.66
2019-03-17T01:33:01.974Z,68.57
2019-03-17T01:34:01.992Z,68.26
2019-03-17T01:35:09.011Z,68.57
2019-03-17T01:37:03.051Z,68.26
2019-03-17T01:38:01.925Z,68.23
2019-03-17T01:39:01.938Z,68.57
2019-03-17T01:40:01.905Z,68.46
2019-03-17T01:41:01.883Z,68.66
2019-03-17T01:42:01.878Z,68.46
2019-03-17T01:43:01.871Z,68.16
2019-03-17T01:44:01.873Z,68.57
2019-03-17T01:45:01.851Z,68.66
2019-03-17T01:46:01.833Z,67.75
2019-03-17T01:47:01.829Z,68.16
2019-03-17T01:48:01.809Z,67.95
2019-03-17T01:49:01.827Z,67.85
2019-03-17T01:50:01.795Z,67.44
2019-03-17T01:51:01.772Z,67.34
2019-03-17T01:52:01.765Z,67.03
2019-03-17T01:53:01.752Z,67.13
2019-03-17T01:55:02.881Z,67.03
2019-03-17T01:56:01.850Z,66.93
2019-03-17T01:57:01.839Z,66.72
2019-03-17T01:58:01.819Z,66.83
2019-03-17T01:59:01.811Z,66.62
2019-03-17T02:00:01.816Z,66.62
2019-03-17T02:01:01.669Z,66.21
2019-03-17T02:02:01.658Z,66.52
2019-03-17T02:03:01.641Z,66.39
2019-03-17T02:04:01.635Z,66.90
2019-03-17T02:05:01.646Z,66.21
2019-03-17T02:06:01.609Z,66.42
2019-03-17T02:07:01.598Z,66.21
2019-03-17T02:08:01.600Z,66.21
2019-03-17T02:09:01.589Z,66.11
2019-03-17T02:10:01.689Z,66.21
2019-03-17T02:11:01.577Z,66.18
2019-03-17T02:12:01.545Z,66.11
2019-03-17T02:13:01.534Z,66.31
2019-03-17T02:14:01.523Z,66.31
2019-03-17T02:15:01.579Z,66.52
2019-03-17T02:16:01.516Z,66.49
2019-03-17T02:17:01.492Z,66.52
2019-03-17T02:18:01.476Z,66.49
2019-03-17T02:19:01.469Z,66.72
2019-03-17T02:20:01.490Z,66.80
2019-03-17T02:21:01.483Z,67.00
2019-03-17T02:22:01.452Z,67.10
2019-03-17T02:23:01.424Z,67.10
2019-03-17T02:24:01.419Z,67.65
2019-03-17T02:25:01.435Z,67.44
2019-03-17T02:26:01.421Z,67.44
2019-03-17T02:27:01.383Z,67.30
2019-03-17T02:28:01.373Z,67.41
2019-03-17T02:29:01.361Z,67.54
2019-03-17T02:30:01.362Z,67.75
2019-03-17T02:31:01.369Z,67.95
2019-03-17T02:32:01.324Z,67.65
2019-03-17T02:33:01.317Z,67.75
2019-03-17T02:34:01.310Z,67.54
2019-03-17T02:35:01.291Z,67.75
2019-03-17T02:36:01.304Z,67.65
2019-03-17T02:37:01.270Z,67.61
2019-03-17T02:38:01.265Z,67.54
2019-03-17T02:39:01.247Z,67.54
2019-03-17T02:40:01.238Z,67.44
2019-03-17T02:41:01.252Z,67.44
2019-03-17T02:42:01.213Z,67.03
2019-03-17T02:43:01.219Z,66.96
2019-03-17T02:44:01.193Z,67.03
2019-03-17T02:45:01.201Z,66.93
2019-03-17T02:46:02.977Z,66.83
2019-03-17T02:47:01.163Z,66.72
2019-03-17T02:48:01.149Z,66.62
2019-03-17T02:49:01.139Z,67.03
2019-03-17T02:50:01.134Z,66.93
2019-03-17T02:51:01.141Z,66.96
2019-03-17T02:52:01.120Z,66.93
2019-03-17T02:53:01.092Z,66.42
2019-03-17T02:54:01.084Z,66.42
2019-03-17T02:55:01.081Z,66.83
2019-03-17T02:56:01.087Z,66.62
2019-03-17T02:57:01.051Z,66.93
2019-03-17T02:58:01.043Z,66.83
2019-03-17T02:59:01.025Z,66.93
2019-03-17T03:00:01.033Z,66.75
2019-03-17T03:01:01.030Z,66.86
2019-03-17T03:02:01.019Z,66.52
2019-03-17T03:03:00.986Z,66.93
2019-03-17T03:04:00.985Z,66.72
2019-03-17T03:05:00.959Z,66.93
2019-03-17T03:06:00.977Z,66.83
2019-03-17T03:07:00.938Z,66.72
2019-03-17T03:08:00.932Z,66.96
2019-03-17T03:09:00.936Z,66.83
2019-03-17T03:10:00.903Z,66.83
2019-03-17T03:11:00.895Z,66.83
2019-03-17T03:12:00.918Z,66.93
2019-03-17T03:13:00.879Z,66.83
2019-03-17T03:14:00.862Z,66.75
2019-03-17T03:15:00.858Z,66.83
2019-03-17T03:16:00.837Z,67.03
2019-03-17T03:17:00.970Z,67.07
2019-03-17T03:18:00.820Z,67.13
2019-03-17T03:19:00.890Z,66.93
2019-03-17T03:20:00.792Z,66.66
2019-03-17T03:21:00.783Z,66.93
2019-03-17T03:22:00.792Z,67.03
2019-03-17T03:23:00.757Z,67.03
2019-03-17T03:24:00.777Z,67.03
2019-03-17T03:25:00.738Z,67.16
2019-03-17T03:26:00.735Z,66.93
2019-03-17T03:27:00.716Z,67.47
2019-03-17T03:28:00.733Z,67.44
2019-03-17T03:29:00.695Z,67.54
2019-03-17T03:30:00.692Z,67.34
2019-03-17T03:31:00.732Z,67.57
2019-03-17T03:32:00.669Z,67.78
2019-03-17T03:33:00.677Z,67.68
2019-03-17T03:34:00.639Z,67.98
2019-03-17T03:35:00.983Z,67.78
2019-03-17T03:36:10.631Z,67.78
2019-03-17T03:37:01.609Z,67.68
2019-03-17T03:38:00.629Z,67.68
2019-03-17T03:39:00.587Z,67.88
2019-03-17T03:40:00.674Z,68.05
2019-03-17T03:41:00.575Z,68.19
2019-03-17T03:42:00.551Z,67.88
2019-03-17T03:43:00.573Z,68.39
2019-03-17T03:44:00.554Z,68.08
2019-03-17T03:45:00.645Z,68.49
2019-03-17T03:46:00.507Z,68.19
2019-03-17T03:47:00.505Z,68.29
2019-03-17T03:48:00.516Z,68.60
2019-03-17T03:49:00.469Z,68.60
2019-03-17T03:50:00.482Z,68.49
2019-03-17T03:51:00.450Z,69.01
2019-03-17T03:52:00.435Z,69.42
2019-03-17T03:53:00.431Z,69.42
2019-03-17T03:54:00.442Z,69.31
2019-03-17T03:55:00.476Z,69.82
2019-03-17T03:56:00.393Z,70.23
2019-03-17T03:57:00.382Z,70.43
2019-03-17T03:58:00.378Z,70.26
2019-03-17T03:59:00.390Z,70.43
2019-03-17T04:00:00.529Z,70.13
2019-03-17T04:01:00.355Z,70.64
2019-03-17T04:02:00.326Z,70.06
2019-03-17T04:03:00.315Z,69.75
2019-03-17T04:04:00.319Z,70.47
2019-03-17T04:05:00.647Z,70.16
2019-03-17T04:06:00.292Z,70.23
2019-03-17T04:07:00.270Z,69.82
2019-03-17T04:08:00.263Z,69.93
2019-03-17T04:09:00.248Z,70.43
2019-03-17T04:10:00.705Z,70.78
2019-03-17T04:11:00.234Z,70.57
2019-03-17T04:12:00.220Z,70.78
2019-03-17T04:13:00.206Z,70.26
2019-03-17T04:14:00.198Z,70.06
2019-03-17T04:15:00.525Z,70.98
2019-03-17T04:16:00.175Z,70.26
2019-03-17T04:17:00.163Z,70.26
2019-03-17T04:18:00.152Z,70.54
2019-03-17T04:19:00.137Z,70.37
2019-03-17T04:20:00.451Z,70.47
2019-03-17T04:21:00.117Z,70.57
2019-03-17T04:22:00.102Z,70.16
2019-03-17T04:23:00.106Z,70.88
2019-03-17T04:24:00.098Z,70.37
2019-03-17T04:25:00.287Z,69.65
2019-03-17T04:26:00.068Z,70.16
2019-03-17T04:27:00.050Z,70.47
2019-03-17T04:28:00.057Z,70.16
2019-03-17T04:29:00.023Z,70.88
2019-03-17T04:30:00.106Z,71.08
2019-03-17T04:31:00.050Z,71.08
2019-03-17T04:31:59.998Z,70.67
2019-03-17T04:32:59.993Z,70.06
2019-03-17T04:33:59.970Z,70.78
2019-03-17T04:34:59.999Z,70.06
2019-03-17T04:35:59.979Z,69.89
2019-03-17T04:36:59.942Z,70.16
2019-03-17T04:37:59.939Z,69.85
2019-03-17T04:38:59.923Z,70.06
2019-03-17T04:39:59.935Z,70.57
2019-03-17T04:40:59.891Z,70.67
2019-03-17T04:41:59.921Z,70.91
2019-03-17T04:42:59.871Z,70.78
2019-03-17T04:43:59.864Z,70.81
2019-03-17T04:44:59.852Z,70.61
2019-03-17T04:45:59.863Z,70.50
2019-03-17T04:46:59.824Z,71.22
2019-03-17T04:47:59.835Z,70.61
2019-03-17T04:48:59.907Z,70.91
2019-03-17T04:49:59.809Z,71.12
2019-03-17T04:50:59.810Z,71.12
2019-03-17T04:51:59.773Z,71.22
2019-03-17T04:52:59.759Z,71.62
2019-03-17T04:53:59.749Z,71.12
2019-03-17T04:54:59.768Z,71.83
2019-03-17T04:55:59.727Z,71.94
2019-03-17T04:56:59.713Z,72.89
2019-03-17T04:57:59.716Z,73.27
2019-03-17T04:58:59.694Z,73.30
2019-03-17T04:59:59.708Z,73.81
2019-03-17T05:00:59.672Z,73.98
2019-03-17T05:01:59.686Z,74.02
2019-03-17T05:02:59.665Z,74.53
2019-03-17T05:03:59.644Z,75.14
2019-03-17T05:04:59.627Z,74.94
2019-03-17T05:05:59.614Z,75.59
2019-03-17T05:06:59.650Z,75.48
2019-03-17T05:07:59.592Z,75.55
2019-03-17T05:08:59.580Z,75.79
2019-03-17T05:09:59.571Z,75.79
2019-03-17T05:10:59.568Z,76.81
2019-03-17T05:11:59.588Z,77.53
2019-03-17T05:12:59.535Z,77.77
2019-03-17T05:13:59.527Z,79.31
2019-03-17T05:14:59.511Z,79.93
2019-03-17T05:15:59.503Z,80.95
2019-03-17T05:16:59.534Z,80.88
2019-03-17T05:17:59.482Z,81.71
2019-03-17T05:18:59.472Z,81.91
2019-03-17T05:19:59.457Z,82.12
2019-03-17T05:20:59.455Z,83.55
2019-03-17T05:21:59.467Z,82.73
2019-03-17T05:22:59.425Z,83.18
2019-03-17T05:23:59.414Z,83.59
2019-03-17T05:24:59.403Z,84.31
2019-03-17T05:25:59.402Z,84.61
2019-03-17T05:26:59.414Z,85.03
2019-03-17T05:27:59.404Z,84.10
2019-03-17T05:28:59.362Z,84.86
2019-03-17T05:29:59.349Z,84.72
2019-03-17T05:30:59.347Z,85.13
2019-03-17T05:31:59.340Z,84.72
2019-03-17T05:32:59.345Z,84.41
2019-03-17T05:33:59.305Z,84.82
2019-03-17T05:34:59.292Z,85.13
2019-03-17T05:35:59.290Z,85.13
2019-03-17T05:37:06.006Z,85.47
2019-03-17T05:38:00.285Z,85.64
2019-03-17T05:38:59.251Z,85.27
2019-03-17T05:39:59.251Z,85.27
2019-03-17T05:40:59.234Z,84.72
2019-03-17T05:41:59.219Z,84.92
2019-03-17T05:42:59.231Z,85.64
2019-03-17T05:43:59.215Z,85.54
2019-03-17T05:44:59.182Z,85.03
2019-03-17T05:45:59.170Z,85.54
2019-03-17T05:46:59.159Z,86.36
2019-03-17T05:47:59.153Z,85.33
2019-03-17T05:48:59.163Z,85.58
2019-03-17T05:49:59.124Z,85.85
2019-03-17T05:50:59.122Z,86.19
2019-03-17T05:51:59.110Z,85.89
2019-03-17T05:52:59.091Z,86.40
2019-03-17T05:53:59.112Z,85.44
2019-03-17T05:54:59.071Z,86.60
2019-03-17T05:55:59.061Z,85.27
2019-03-17T05:56:59.060Z,85.27
2019-03-17T05:57:59.043Z,85.68
2019-03-17T05:58:59.058Z,85.47
2019-03-17T05:59:59.020Z,85.58
2019-03-17T06:00:59.070Z,85.64
2019-03-17T06:01:59.065Z,85.78
2019-03-17T06:02:58.981Z,85.89
2019-03-17T06:03:58.995Z,84.55
2019-03-17T06:04:58.961Z,84.76
2019-03-17T06:05:58.947Z,85.06
2019-03-17T06:06:58.936Z,84.55
2019-03-17T06:07:58.933Z,85.06
2019-03-17T06:08:58.950Z,84.76
2019-03-17T06:09:58.931Z,85.17
2019-03-17T06:10:58.893Z,84.76
2019-03-17T06:11:58.894Z,84.76
2019-03-17T06:12:58.869Z,85.00
2019-03-17T06:13:58.885Z,85.17
2019-03-17T06:14:58.871Z,84.96
2019-03-17T06:15:58.839Z,84.69
2019-03-17T06:16:58.823Z,84.96
2019-03-17T06:17:58.817Z,84.96
2019-03-17T06:18:58.806Z,85.00
2019-03-17T06:19:58.821Z,85.27
2019-03-17T06:20:58.784Z,85.06
2019-03-17T06:22:00.518Z,85.27
2019-03-17T06:22:58.772Z,85.31
2019-03-17T06:23:58.747Z,85.78
2019-03-17T06:24:58.766Z,85.72
2019-03-17T06:25:58.726Z,85.72
2019-03-17T06:26:58.716Z,85.62
2019-03-17T06:27:58.704Z,85.06
2019-03-17T06:28:58.695Z,85.06
2019-03-17T06:29:58.716Z,85.93
2019-03-17T06:30:58.678Z,85.68
2019-03-17T06:31:58.665Z,85.72
2019-03-17T06:32:58.657Z,85.82
2019-03-17T06:33:58.642Z,85.93
2019-03-17T06:34:58.669Z,85.68
2019-03-17T06:35:58.623Z,86.24
2019-03-17T06:36:58.611Z,85.93
2019-03-17T06:37:58.603Z,85.82
2019-03-17T06:38:58.585Z,85.93
2019-03-17T06:39:58.598Z,85.58
2019-03-17T06:40:58.586Z,85.93
2019-03-17T06:41:58.557Z,86.03
2019-03-17T06:42:58.539Z,86.65
2019-03-17T06:43:58.532Z,86.40
2019-03-17T06:44:58.544Z,87.05
2019-03-17T06:45:58.534Z,87.05
2019-03-17T06:46:58.493Z,87.67
2019-03-17T06:47:58.485Z,87.57
2019-03-17T06:48:58.475Z,87.46
2019-03-17T06:49:58.463Z,87.16
2019-03-17T06:50:58.481Z,86.85
2019-03-17T06:51:58.444Z,87.26
2019-03-17T06:52:58.433Z,87.16
2019-03-17T06:53:58.421Z,87.16
2019-03-17T06:54:58.404Z,87.16
2019-03-17T06:55:58.418Z,87.26
2019-03-17T06:56:58.389Z,87.05
2019-03-17T06:57:58.388Z,87.16
2019-03-17T06:58:58.364Z,87.05
2019-03-17T06:59:58.353Z,87.26
2019-03-17T07:00:58.372Z,87.16
2019-03-17T07:01:58.366Z,86.95
2019-03-17T07:02:58.319Z,87.37
2019-03-17T07:03:58.304Z,87.26
2019-03-17T07:04:58.308Z,87.46
2019-03-17T07:05:58.289Z,86.95
2019-03-17T07:06:58.302Z,87.05
2019-03-17T07:07:58.260Z,87.67
2019-03-17T07:08:58.254Z,87.16
2019-03-17T07:09:58.248Z,87.40
2019-03-17T07:10:58.234Z,87.37
2019-03-17T07:11:58.243Z,87.77
2019-03-17T07:12:58.210Z,87.98
2019-03-17T07:13:58.198Z,87.67
2019-03-17T07:14:58.194Z,87.98
2019-03-17T07:15:58.177Z,88.23
2019-03-17T07:16:58.212Z,88.08
2019-03-17T07:17:58.154Z,89.01
2019-03-17T07:18:58.145Z,87.98
2019-03-17T07:19:58.135Z,88.59
2019-03-17T07:20:58.122Z,88.90
2019-03-17T07:21:58.135Z,88.80
2019-03-17T07:22:58.178Z,87.10
2019-03-17T07:23:58.082Z,87.30
2019-03-17T07:24:58.082Z,87.30
2019-03-17T07:25:58.060Z,86.38
2019-03-17T07:26:58.163Z,86.68
2019-03-17T07:27:58.038Z,86.32
2019-03-17T07:28:58.032Z,87.45
2019-03-17T07:29:58.024Z,87.45
2019-03-17T07:30:58.013Z,86.83
2019-03-17T07:31:58.020Z,87.13
2019-03-17T07:32:57.983Z,87.85
2019-03-17T07:33:57.972Z,87.79
2019-03-17T07:34:57.964Z,88.10
2019-03-17T07:35:57.962Z,86.50
2019-03-17T07:36:57.983Z,84.58
2019-03-17T07:37:57.933Z,85.51
2019-03-17T07:39:10.841Z,86.27
2019-03-17T07:39:58.909Z,87.60
2019-03-17T07:40:57.903Z,87.13
2019-03-17T07:41:57.891Z,86.61
2019-03-17T07:42:57.901Z,87.09
2019-03-17T07:43:57.863Z,87.24
2019-03-17T07:44:57.857Z,87.65
2019-03-17T07:45:57.849Z,87.59
2019-03-17T07:46:57.839Z,87.75
2019-03-17T07:47:57.848Z,86.93
2019-03-17T07:48:57.812Z,87.07
2019-03-17T07:49:57.797Z,87.69
2019-03-17T07:50:57.789Z,87.59
2019-03-17T07:51:57.783Z,87.79
2019-03-17T07:52:57.789Z,87.69
2019-03-17T07:53:57.766Z,87.79
2019-03-17T07:54:57.745Z,86.35
2019-03-17T07:55:57.740Z,86.24
2019-03-17T07:56:57.718Z,86.55
2019-03-17T07:57:57.748Z,86.80
2019-03-17T07:58:57.727Z,86.97
2019-03-17T07:59:57.697Z,86.24
2019-03-17T08:00:57.677Z,84.94
2019-03-17T08:01:57.663Z,85.01
2019-03-17T08:02:57.658Z,85.83
2019-03-17T08:03:57.680Z,86.04
2019-03-17T08:04:57.635Z,85.11
2019-03-17T08:05:57.621Z,85.77
2019-03-17T08:06:57.620Z,85.77
2019-03-17T08:08:08.667Z,84.91
2019-03-17T08:08:58.615Z,84.70
2019-03-17T08:09:57.597Z,84.19
2019-03-17T08:10:57.584Z,84.12
2019-03-17T08:11:57.554Z,83.71
2019-03-17T08:12:57.547Z,84.53
2019-03-17T08:13:57.563Z,83.71
2019-03-17T08:14:57.883Z,84.53
2019-03-17T08:15:57.512Z,84.33
2019-03-17T08:16:57.502Z,84.80
2019-03-17T08:17:57.486Z,84.80
2019-03-17T08:18:57.533Z,84.70
2019-03-17T08:19:57.463Z,83.36
2019-03-17T08:20:57.460Z,83.26
2019-03-17T08:21:57.447Z,84.08
2019-03-17T08:22:57.436Z,83.98
2019-03-17T08:23:57.427Z,83.87
2019-03-17T08:24:57.432Z,83.77
2019-03-17T08:25:57.400Z,83.26
2019-03-17T08:26:57.385Z,81.54
2019-03-17T08:27:57.379Z,81.71
2019-03-17T08:28:57.390Z,80.58
2019-03-17T08:29:57.390Z,80.27
2019-03-17T08:30:57.340Z,81.40
2019-03-17T08:31:57.334Z,81.40
2019-03-17T08:32:57.326Z,81.71
2019-03-17T08:33:57.315Z,81.61
2019-03-17T08:34:57.334Z,80.16
2019-03-17T08:35:57.294Z,81.71
2019-03-17T08:36:57.282Z,81.20
2019-03-17T08:37:57.265Z,79.75
2019-03-17T08:38:57.256Z,79.75
2019-03-17T08:39:57.289Z,79.86
2019-03-17T08:40:57.256Z,79.79
2019-03-17T08:41:57.221Z,80.58
2019-03-17T08:42:57.208Z,80.68
2019-03-17T08:43:57.206Z,81.20
2019-03-17T08:44:57.219Z,81.30
2019-03-17T08:45:57.186Z,80.54
2019-03-17T08:46:57.165Z,81.05
2019-03-17T08:47:58.696Z,80.37
2019-03-17T08:48:57.194Z,80.33
2019-03-17T08:49:57.165Z,80.65
2019-03-17T08:50:57.125Z,81.02
2019-03-17T08:51:57.158Z,81.47
2019-03-17T08:52:57.103Z,81.33
2019-03-17T08:53:57.090Z,80.33
2019-03-17T08:54:57.111Z,80.19
2019-03-17T08:55:57.095Z,81.43
2019-03-17T08:56:57.067Z,81.53
2019-03-17T08:57:57.052Z,81.12
2019-03-17T08:58:57.039Z,81.23
2019-03-17T08:59:57.045Z,81.37
2019-03-17T09:00:57.045Z,80.51
2019-03-17T09:01:57.001Z,81.53
2019-03-17T09:02:57.001Z,81.39
2019-03-17T09:03:56.983Z,80.19
2019-03-17T09:04:56.981Z,81.09
2019-03-17T09:05:56.987Z,80.19
2019-03-17T09:06:56.959Z,80.71
2019-03-17T09:07:56.934Z,79.58
2019-03-17T09:08:56.926Z,80.51
2019-03-17T09:09:56.912Z,79.58
2019-03-17T09:10:56.937Z,79.58
2019-03-17T09:11:56.916Z,79.68
2019-03-17T09:12:56.895Z,79.88
2019-03-17T09:13:56.868Z,79.33
2019-03-17T09:14:56.862Z,78.44
2019-03-17T09:15:56.876Z,79.68
2019-03-17T09:16:56.843Z,79.68
2019-03-17T09:17:56.828Z,79.58
2019-03-17T09:18:56.825Z,80.30
2019-03-17T09:19:56.813Z,80.05
2019-03-17T09:20:56.905Z,80.05
2019-03-17T09:21:56.782Z,78.92
2019-03-17T09:22:56.783Z,79.64
2019-03-17T09:23:56.767Z,78.92
2019-03-17T09:24:56.755Z,79.54
2019-03-17T09:25:56.761Z,80.26
2019-03-17T09:26:56.752Z,79.44
2019-03-17T09:27:56.716Z,79.95
2019-03-17T09:28:56.710Z,78.82
2019-03-17T09:29:56.694Z,78.41
2019-03-17T09:30:56.684Z,78.41
2019-03-17T09:31:56.705Z,78.72
2019-03-17T09:32:56.661Z,78.20
2019-03-17T09:33:56.652Z,78.10
2019-03-17T09:34:56.645Z,79.13
2019-03-17T09:35:56.640Z,78.51
2019-03-17T09:36:56.659Z,79.03
2019-03-17T09:37:56.607Z,79.23
2019-03-17T09:38:56.600Z,78.30
2019-03-17T09:39:56.590Z,79.64
2019-03-17T09:40:56.579Z,79.64
2019-03-17T09:41:56.597Z,79.75
2019-03-17T09:42:56.553Z,79.40
2019-03-17T09:43:56.549Z,78.47
2019-03-17T09:44:56.528Z,77.86
2019-03-17T09:45:56.526Z,77.55
2019-03-17T09:46:56.539Z,78.27
2019-03-17T09:47:56.520Z,78.37
2019-03-17T09:48:56.498Z,78.51
2019-03-17T09:49:56.484Z,78.47
2019-03-17T09:50:56.463Z,78.30
2019-03-17T09:51:56.454Z,78.51
2019-03-17T09:52:56.462Z,78.47
2019-03-17T09:53:56.427Z,78.89
2019-03-17T09:54:56.440Z,79.30
2019-03-17T09:55:56.419Z,78.37
2019-03-17T09:56:56.404Z,78.37
2019-03-17T09:57:56.422Z,78.44
2019-03-17T09:58:56.383Z,78.23
2019-03-17T09:59:56.361Z,78.23
2019-03-17T10:00:56.350Z,78.27
2019-03-17T10:01:56.343Z,78.54
2019-03-17T10:02:56.372Z,78.54
2019-03-17T10:03:56.330Z,77.92
2019-03-17T10:04:56.310Z,77.17
2019-03-17T10:05:56.300Z,77.31
2019-03-17T10:06:56.284Z,77.92
2019-03-17T10:07:56.310Z,77.82
2019-03-17T10:09:00.341Z,77.41
2019-03-17T10:09:56.264Z,78.03
2019-03-17T10:10:56.245Z,77.51
2019-03-17T10:11:56.237Z,77.31
2019-03-17T10:12:56.251Z,77.78
2019-03-17T10:13:56.215Z,77.99
2019-03-17T10:14:56.205Z,77.92
2019-03-17T10:15:56.189Z,77.78
2019-03-17T10:16:56.173Z,78.33
2019-03-17T10:17:56.285Z,78.13
2019-03-17T10:18:56.164Z,77.68
2019-03-17T10:19:56.143Z,77.68
2019-03-17T10:20:56.138Z,77.27
2019-03-17T10:21:56.122Z,77.27
2019-03-17T10:22:56.108Z,77.48
2019-03-17T10:23:56.280Z,77.48
2019-03-17T10:24:56.091Z,77.27
2019-03-17T10:25:56.078Z,77.37
2019-03-17T10:26:56.065Z,76.97
2019-03-17T10:27:56.059Z,76.76
2019-03-17T10:28:56.077Z,76.18
2019-03-17T10:29:56.059Z,76.90
2019-03-17T10:30:56.025Z,77.20
2019-03-17T10:31:56.017Z,76.31
2019-03-17T10:32:56.012Z,76.59
2019-03-17T10:33:56.023Z,76.59
2019-03-17T10:34:56.008Z,76.11
2019-03-17T10:35:55.967Z,77.34
2019-03-17T10:36:55.957Z,76.73
2019-03-17T10:37:55.954Z,77.03
2019-03-17T10:38:55.980Z,77.24
2019-03-17T10:39:55.935Z,77.79
2019-03-17T10:40:55.912Z,76.04
2019-03-17T10:41:55.896Z,75.01
2019-03-17T10:42:55.895Z,74.63
2019-03-17T10:43:55.880Z,75.87
2019-03-17T10:44:55.905Z,76.49
2019-03-17T10:45:55.858Z,76.39
2019-03-17T10:46:55.854Z,76.28
2019-03-17T10:47:55.841Z,76.14
2019-03-17T10:48:55.839Z,76.28
2019-03-17T10:49:55.848Z,75.87
2019-03-17T10:50:55.803Z,76.18
2019-03-17T10:51:55.793Z,75.97
2019-03-17T10:52:55.776Z,75.90
2019-03-17T10:53:55.774Z,76.53
2019-03-17T10:54:55.797Z,77.21
2019-03-17T10:55:55.754Z,77.25
2019-03-17T10:56:55.736Z,77.04
2019-03-17T10:57:55.760Z,76.21
2019-03-17T10:58:55.717Z,76.59
2019-03-17T10:59:55.721Z,76.39
2019-03-17T11:00:55.727Z,76.59
2019-03-17T11:01:55.690Z,76.39
2019-03-17T11:02:55.679Z,76.49
2019-03-17T11:03:55.667Z,74.91
2019-03-17T11:04:55.658Z,75.63
2019-03-17T11:05:55.664Z,75.32
2019-03-17T11:06:55.633Z,74.70
2019-03-17T11:07:55.618Z,74.19
2019-03-17T11:08:55.601Z,74.98
2019-03-17T11:09:55.594Z,74.67
2019-03-17T11:10:55.612Z,74.53
2019-03-17T11:11:55.577Z,74.63
2019-03-17T11:12:55.566Z,74.22
2019-03-17T11:13:55.567Z,73.47
2019-03-17T11:14:55.553Z,72.61
2019-03-17T11:15:55.555Z,72.34
2019-03-17T11:16:55.540Z,72.55
2019-03-17T11:17:55.519Z,72.20
2019-03-17T11:18:55.498Z,72.48
2019-03-17T11:19:55.480Z,71.45
2019-03-17T11:20:55.496Z,71.21
2019-03-17T11:21:55.462Z,71.01
2019-03-17T11:22:55.453Z,71.01
2019-03-17T11:23:55.449Z,71.35
2019-03-17T11:24:55.432Z,70.39
2019-03-17T11:25:55.444Z,71.55
2019-03-17T11:26:55.832Z,70.67
2019-03-17T11:27:55.395Z,70.32
2019-03-17T11:28:55.385Z,71.04
2019-03-17T11:29:55.374Z,69.89
2019-03-17T11:30:55.368Z,69.57
2019-03-17T11:31:55.391Z,70.09
2019-03-17T11:32:55.351Z,69.20
2019-03-17T11:33:55.338Z,69.74
2019-03-17T11:34:55.328Z,70.67
2019-03-17T11:35:55.332Z,70.05
2019-03-17T11:36:55.331Z,71.62
2019-03-17T11:37:55.288Z,71.11
2019-03-17T11:38:55.272Z,71.42
2019-03-17T11:39:55.276Z,72.17
2019-03-17T11:40:55.263Z,73.16
2019-03-17T11:41:55.273Z,73.68
2019-03-17T11:42:55.236Z,74.32
2019-03-17T11:43:55.229Z,74.87
2019-03-17T11:44:55.219Z,74.98
2019-03-17T11:45:55.200Z,75.49
2019-03-17T11:46:55.226Z,73.64
2019-03-17T11:47:55.183Z,72.03
2019-03-17T11:48:55.205Z,72.65
2019-03-17T11:49:55.159Z,73.36
2019-03-17T11:50:55.150Z,73.68
2019-03-17T11:51:55.156Z,73.44
2019-03-17T11:52:55.123Z,73.23
2019-03-17T11:53:55.122Z,73.33
2019-03-17T11:54:55.094Z,73.36
2019-03-17T11:55:55.092Z,72.44
2019-03-17T11:56:55.112Z,71.75
2019-03-17T11:57:55.108Z,71.55
2019-03-17T11:58:55.055Z,71.93
2019-03-17T11:59:55.104Z,70.90
2019-03-17T12:00:55.166Z,70.52
2019-03-17T12:01:55.064Z,70.49
2019-03-17T12:02:55.018Z,69.09
2019-03-17T12:03:55.015Z,67.75
2019-03-17T12:04:55.007Z,68.26
2019-03-17T12:05:54.979Z,68.80
2019-03-17T12:06:54.975Z,69.09
2019-03-17T12:07:55.303Z,68.88
2019-03-17T12:08:54.944Z,68.05
2019-03-17T12:09:54.965Z,67.91
2019-03-17T12:10:54.935Z,68.43
2019-03-17T12:11:54.914Z,68.53
2019-03-17T12:12:54.921Z,67.57
2019-03-17T12:13:54.912Z,68.12
2019-03-17T12:14:54.894Z,69.22
2019-03-17T12:15:54.873Z,69.22
2019-03-17T12:16:54.867Z,68.91
2019-03-17T12:17:54.892Z,69.12
2019-03-17T12:18:54.834Z,72.24
2019-03-17T12:19:54.826Z,67.79
2019-03-17T12:20:54.822Z,69.12
2019-03-17T12:21:54.801Z,68.16
2019-03-17T12:22:54.791Z,67.07
2019-03-17T12:23:54.831Z,67.35
2019-03-17T12:24:54.763Z,66.93
2019-03-17T12:25:54.753Z,66.42
2019-03-17T12:26:54.754Z,67.35
2019-03-17T12:27:54.743Z,67.41
2019-03-17T12:28:54.750Z,66.90
2019-03-17T12:29:54.707Z,66.52
2019-03-17T12:30:54.696Z,67.27
2019-03-17T12:31:54.694Z,67.27
2019-03-17T12:32:54.701Z,67.24
2019-03-17T12:33:54.696Z,67.76
2019-03-17T12:34:54.670Z,67.76
2019-03-17T12:35:54.648Z,68.13
2019-03-17T12:36:54.631Z,67.41
2019-03-17T12:37:54.640Z,67.18
2019-03-17T12:38:54.662Z,67.66
2019-03-17T12:40:02.331Z,66.33
2019-03-17T12:40:55.592Z,66.74
2019-03-17T12:41:54.581Z,65.99
2019-03-17T12:42:54.575Z,66.50
2019-03-17T12:43:54.565Z,65.81
2019-03-17T12:44:54.582Z,66.19
2019-03-17T12:45:54.528Z,66.71
2019-03-17T12:46:54.524Z,67.11
2019-03-17T12:47:54.521Z,66.91
2019-03-17T12:48:54.522Z,65.86
2019-03-17T12:49:54.532Z,66.03
2019-03-17T12:50:54.477Z,64.18
2019-03-17T12:51:54.498Z,64.29
2019-03-17T12:52:54.466Z,64.39
2019-03-17T12:53:54.448Z,64.29